sensor_id;sensor_type;location;lat;lon;timestamp;temperature;humidity
49765;DHT22;35657;51.204;-4.130;2022-08-19T00:00:35;19.50;99.90
49765;DHT22;35657;51.204;-4.130;2022-08-19T00:03:02;19.60;99.90
49765;DHT22;35657;51.204;-4.130;2022-08-19T00:05:28;19.60;99.90
49765;DHT22;35657;51.204;-4.130;2022-08-19T00:07:53;19.70;99.90
49765;DHT22;35657;51.204;-4.130;2022-08-19T00:10:20;19.80;99.90
49765;DHT22;35657;51.204;-4.130;2022-08-19T00:12:46;19.80;99.90
49765;DHT22;35657;51.204;-4.130;2022-08-19T00:15:14;19.80;99.90
49765;DHT22;35657;51.204;-4.130;2022-08-19T00:17:42;19.80;99.90
49765;DHT22;35657;51.204;-4.130;2022-08-19T00:20:16;19.80;99.90
49765;DHT22;35657;51.204;-4.130;2022-08-19T00:22:44;19.70;99.90
49765;DHT22;35657;51.204;-4.130;2022-08-19T00:25:10;19.60;99.90
49765;DHT22;35657;51.204;-4.130;2022-08-19T00:27:36;19.50;99.90
49765;DHT22;35657;51.204;-4.130;2022-08-19T00:30:03;19.40;99.90
49765;DHT22;35657;51.204;-4.130;2022-08-19T00:32:29;19.40;99.90
49765;DHT22;35657;51.204;-4.130;2022-08-19T00:34:55;19.30;99.90
49765;DHT22;35657;51.204;-4.130;2022-08-19T00:37:23;19.30;99.90
49765;DHT22;35657;51.204;-4.130;2022-08-19T00:39:51;19.20;99.90
49765;DHT22;35657;51.204;-4.130;2022-08-19T00:42:18;19.20;99.90
49765;DHT22;35657;51.204;-4.130;2022-08-19T00:44:44;19.20;99.90
49765;DHT22;35657;51.204;-4.130;2022-08-19T00:47:10;19.20;99.90
49765;DHT22;35657;51.204;-4.130;2022-08-19T00:49:44;19.20;99.90
49765;DHT22;35657;51.204;-4.130;2022-08-19T00:52:25;19.20;99.90
49765;DHT22;35657;51.204;-4.130;2022-08-19T00:54:54;19.10;99.90
49765;DHT22;35657;51.204;-4.130;2022-08-19T00:57:27;19.10;99.90
49765;DHT22;35657;51.204;-4.130;2022-08-19T00:59:55;19.10;99.90
49765;DHT22;35657;51.204;-4.130;2022-08-19T01:02:21;19.10;99.90
49765;DHT22;35657;51.204;-4.130;2022-08-19T01:04:47;19.10;99.90
49765;DHT22;35657;51.204;-4.130;2022-08-19T01:07:13;19.30;99.90
49765;DHT22;35657;51.204;-4.130;2022-08-19T01:09:39;19.30;99.90
49765;DHT22;35657;51.204;-4.130;2022-08-19T01:12:05;19.40;99.90
49765;DHT22;35657;51.204;-4.130;2022-08-19T01:14:31;19.40;99.90
49765;DHT22;35657;51.204;-4.130;2022-08-19T01:16:57;19.40;99.90
49765;DHT22;35657;51.204;-4.130;2022-08-19T01:19:33;19.40;99.90
49765;DHT22;35657;51.204;-4.130;2022-08-19T01:24:40;19.30;99.90
49765;DHT22;35657;51.204;-4.130;2022-08-19T01:27:06;19.30;99.90
49765;DHT22;35657;51.204;-4.130;2022-08-19T01:29:33;19.20;99.90
49765;DHT22;35657;51.204;-4.130;2022-08-19T01:32:01;19.10;99.90
49765;DHT22;35657;51.204;-4.130;2022-08-19T01:34:27;19.00;99.90
49765;DHT22;35657;51.204;-4.130;2022-08-19T01:36:53;18.90;99.90
49765;DHT22;35657;51.204;-4.130;2022-08-19T01:39:23;18.90;99.90
49765;DHT22;35657;51.204;-4.130;2022-08-19T01:41:49;18.90;99.90
49765;DHT22;35657;51.204;-4.130;2022-08-19T01:44:16;18.90;99.90
49765;DHT22;35657;51.204;-4.130;2022-08-19T01:46:42;18.90;99.90
49765;DHT22;35657;51.204;-4.130;2022-08-19T01:49:09;18.80;99.90
49765;DHT22;35657;51.204;-4.130;2022-08-19T01:51:37;18.80;99.90
49765;DHT22;35657;51.204;-4.130;2022-08-19T01:54:03;18.80;99.90
49765;DHT22;35657;51.204;-4.130;2022-08-19T01:56:28;18.80;99.90
49765;DHT22;35657;51.204;-4.130;2022-08-19T01:59:05;18.80;99.90
49765;DHT22;35657;51.204;-4.130;2022-08-19T02:01:33;18.70;99.90
49765;DHT22;35657;51.204;-4.130;2022-08-19T02:04:00;18.70;99.90
49765;DHT22;35657;51.204;-4.130;2022-08-19T02:06:29;18.70;99.90
49765;DHT22;35657;51.204;-4.130;2022-08-19T02:08:55;18.70;99.90
49765;DHT22;35657;51.204;-4.130;2022-08-19T02:11:33;18.80;99.90
49765;DHT22;35657;51.204;-4.130;2022-08-19T02:14:02;18.90;99.90
49765;DHT22;35657;51.204;-4.130;2022-08-19T02:16:29;18.90;99.90
49765;DHT22;35657;51.204;-4.130;2022-08-19T02:18:56;19.00;99.90
49765;DHT22;35657;51.204;-4.130;2022-08-19T02:21:22;19.10;99.90
49765;DHT22;35657;51.204;-4.130;2022-08-19T02:23:49;19.00;99.90
49765;DHT22;35657;51.204;-4.130;2022-08-19T02:26:17;18.80;99.90
49765;DHT22;35657;51.204;-4.130;2022-08-19T02:28:42;18.70;99.90
49765;DHT22;35657;51.204;-4.130;2022-08-19T02:31:11;18.60;99.90
49765;DHT22;35657;51.204;-4.130;2022-08-19T02:33:37;18.60;99.90
49765;DHT22;35657;51.204;-4.130;2022-08-19T02:36:04;18.50;99.90
49765;DHT22;35657;51.204;-4.130;2022-08-19T02:38:31;18.50;99.90
49765;DHT22;35657;51.204;-4.130;2022-08-19T02:40:59;18.50;99.90
49765;DHT22;35657;51.204;-4.130;2022-08-19T02:43:26;18.50;99.90
49765;DHT22;35657;51.204;-4.130;2022-08-19T02:45:53;18.50;99.90
49765;DHT22;35657;51.204;-4.130;2022-08-19T02:48:20;18.30;99.90
49765;DHT22;35657;51.204;-4.130;2022-08-19T02:50:48;18.40;99.90
49765;DHT22;35657;51.204;-4.130;2022-08-19T02:53:21;18.40;99.90
49765;DHT22;35657;51.204;-4.130;2022-08-19T02:55:48;18.30;99.90
49765;DHT22;35657;51.204;-4.130;2022-08-19T02:58:15;18.40;99.90
49765;DHT22;35657;51.204;-4.130;2022-08-19T03:00:46;18.30;99.90
49765;DHT22;35657;51.204;-4.130;2022-08-19T03:03:12;18.20;99.90
49765;DHT22;35657;51.204;-4.130;2022-08-19T03:05:38;18.20;99.90
49765;DHT22;35657;51.204;-4.130;2022-08-19T03:08:04;18.20;99.90
49765;DHT22;35657;51.204;-4.130;2022-08-19T03:10:32;18.10;99.90
49765;DHT22;35657;51.204;-4.130;2022-08-19T03:12:58;18.00;99.90
49765;DHT22;35657;51.204;-4.130;2022-08-19T03:15:24;18.00;99.90
49765;DHT22;35657;51.204;-4.130;2022-08-19T03:17:49;18.10;99.90
49765;DHT22;35657;51.204;-4.130;2022-08-19T03:20:15;18.10;99.90
49765;DHT22;35657;51.204;-4.130;2022-08-19T03:22:41;18.10;99.90
49765;DHT22;35657;51.204;-4.130;2022-08-19T03:25:07;18.10;99.90
49765;DHT22;35657;51.204;-4.130;2022-08-19T03:27:33;18.00;99.90
49765;DHT22;35657;51.204;-4.130;2022-08-19T03:29:58;18.00;99.90
49765;DHT22;35657;51.204;-4.130;2022-08-19T03:32:24;18.00;99.90
49765;DHT22;35657;51.204;-4.130;2022-08-19T03:34:50;18.00;99.90
49765;DHT22;35657;51.204;-4.130;2022-08-19T03:37:17;18.00;99.90
49765;DHT22;35657;51.204;-4.130;2022-08-19T03:39:43;17.90;99.90
49765;DHT22;35657;51.204;-4.130;2022-08-19T03:42:09;18.00;99.90
49765;DHT22;35657;51.204;-4.130;2022-08-19T03:44:35;17.90;99.90
49765;DHT22;35657;51.204;-4.130;2022-08-19T03:47:03;17.80;99.90
49765;DHT22;35657;51.204;-4.130;2022-08-19T03:49:30;17.80;99.90
49765;DHT22;35657;51.204;-4.130;2022-08-19T03:51:58;17.80;99.90
49765;DHT22;35657;51.204;-4.130;2022-08-19T03:54:26;17.80;99.90
49765;DHT22;35657;51.204;-4.130;2022-08-19T03:56:55;17.80;99.90
49765;DHT22;35657;51.204;-4.130;2022-08-19T03:59:30;17.90;99.90
49765;DHT22;35657;51.204;-4.130;2022-08-19T04:01:58;17.80;99.90
49765;DHT22;35657;51.204;-4.130;2022-08-19T04:04:25;17.70;99.90
49765;DHT22;35657;51.204;-4.130;2022-08-19T04:06:51;17.70;99.90
49765;DHT22;35657;51.204;-4.130;2022-08-19T04:09:18;17.70;99.90
49765;DHT22;35657;51.204;-4.130;2022-08-19T04:11:47;17.70;99.90
49765;DHT22;35657;51.204;-4.130;2022-08-19T04:14:19;17.60;99.90
49765;DHT22;35657;51.204;-4.130;2022-08-19T04:16:46;17.60;99.90
49765;DHT22;35657;51.204;-4.130;2022-08-19T04:19:14;17.70;99.90
49765;DHT22;35657;51.204;-4.130;2022-08-19T04:21:40;17.60;99.90
49765;DHT22;35657;51.204;-4.130;2022-08-19T04:24:11;17.60;99.90
49765;DHT22;35657;51.204;-4.130;2022-08-19T04:26:37;17.70;99.90
49765;DHT22;35657;51.204;-4.130;2022-08-19T04:29:07;17.60;99.90
49765;DHT22;35657;51.204;-4.130;2022-08-19T04:31:33;17.60;99.90
49765;DHT22;35657;51.204;-4.130;2022-08-19T04:34:05;17.50;99.90
49765;DHT22;35657;51.204;-4.130;2022-08-19T04:36:35;17.60;99.90
49765;DHT22;35657;51.204;-4.130;2022-08-19T04:39:05;17.60;99.90
49765;DHT22;35657;51.204;-4.130;2022-08-19T04:41:31;17.50;99.90
49765;DHT22;35657;51.204;-4.130;2022-08-19T04:44:15;17.40;99.90
49765;DHT22;35657;51.204;-4.130;2022-08-19T04:46:48;17.40;99.90
49765;DHT22;35657;51.204;-4.130;2022-08-19T04:49:16;17.40;99.90
49765;DHT22;35657;51.204;-4.130;2022-08-19T04:51:44;17.40;99.90
49765;DHT22;35657;51.204;-4.130;2022-08-19T04:54:10;17.30;99.90
49765;DHT22;35657;51.204;-4.130;2022-08-19T04:56:36;17.30;99.90
49765;DHT22;35657;51.204;-4.130;2022-08-19T04:59:02;17.30;99.90
49765;DHT22;35657;51.204;-4.130;2022-08-19T05:01:30;17.30;99.90
49765;DHT22;35657;51.204;-4.130;2022-08-19T05:03:58;17.20;99.90
49765;DHT22;35657;51.204;-4.130;2022-08-19T05:06:24;17.20;99.90
49765;DHT22;35657;51.204;-4.130;2022-08-19T05:08:51;17.10;99.90
49765;DHT22;35657;51.204;-4.130;2022-08-19T05:11:25;17.10;99.90
49765;DHT22;35657;51.204;-4.130;2022-08-19T05:13:51;17.10;99.90
49765;DHT22;35657;51.204;-4.130;2022-08-19T05:16:20;17.10;99.90
49765;DHT22;35657;51.204;-4.130;2022-08-19T05:18:46;17.10;99.90
49765;DHT22;35657;51.204;-4.130;2022-08-19T05:21:31;17.00;99.90
49765;DHT22;35657;51.204;-4.130;2022-08-19T05:24:19;17.00;99.90
49765;DHT22;35657;51.204;-4.130;2022-08-19T05:26:47;16.90;99.90
49765;DHT22;35657;51.204;-4.130;2022-08-19T05:29:20;16.90;99.90
49765;DHT22;35657;51.204;-4.130;2022-08-19T05:31:48;17.00;99.90
49765;DHT22;35657;51.204;-4.130;2022-08-19T05:34:18;16.90;99.90
49765;DHT22;35657;51.204;-4.130;2022-08-19T05:36:47;17.00;99.90
49765;DHT22;35657;51.204;-4.130;2022-08-19T05:39:18;16.90;99.90
49765;DHT22;35657;51.204;-4.130;2022-08-19T05:41:51;16.90;99.90
49765;DHT22;35657;51.204;-4.130;2022-08-19T05:44:18;17.00;99.90
49765;DHT22;35657;51.204;-4.130;2022-08-19T05:46:47;16.90;99.90
49765;DHT22;35657;51.204;-4.130;2022-08-19T05:49:14;16.80;99.90
49765;DHT22;35657;51.204;-4.130;2022-08-19T05:51:41;16.80;99.90
49765;DHT22;35657;51.204;-4.130;2022-08-19T05:54:07;16.90;99.90
49765;DHT22;35657;51.204;-4.130;2022-08-19T05:56:34;16.90;99.90
49765;DHT22;35657;51.204;-4.130;2022-08-19T05:59:05;16.90;99.90
49765;DHT22;35657;51.204;-4.130;2022-08-19T06:01:34;16.90;99.90
49765;DHT22;35657;51.204;-4.130;2022-08-19T06:04:01;16.90;99.90
49765;DHT22;35657;51.204;-4.130;2022-08-19T06:06:28;16.90;99.90
49765;DHT22;35657;51.204;-4.130;2022-08-19T06:08:54;16.90;99.90
49765;DHT22;35657;51.204;-4.130;2022-08-19T06:11:31;16.80;99.90
49765;DHT22;35657;51.204;-4.130;2022-08-19T06:14:03;16.80;99.90
49765;DHT22;35657;51.204;-4.130;2022-08-19T06:16:30;16.80;99.90
49765;DHT22;35657;51.204;-4.130;2022-08-19T06:18:59;16.80;99.90
49765;DHT22;35657;51.204;-4.130;2022-08-19T06:21:27;16.80;99.90
49765;DHT22;35657;51.204;-4.130;2022-08-19T06:23:54;16.80;99.90
49765;DHT22;35657;51.204;-4.130;2022-08-19T06:26:21;16.80;99.90
49765;DHT22;35657;51.204;-4.130;2022-08-19T06:28:47;16.80;99.90
49765;DHT22;35657;51.204;-4.130;2022-08-19T06:31:19;16.80;99.90
49765;DHT22;35657;51.204;-4.130;2022-08-19T06:33:47;16.80;99.90
49765;DHT22;35657;51.204;-4.130;2022-08-19T06:36:34;16.70;99.90
49765;DHT22;35657;51.204;-4.130;2022-08-19T06:39:13;16.80;99.90
49765;DHT22;35657;51.204;-4.130;2022-08-19T06:41:41;16.80;99.90
49765;DHT22;35657;51.204;-4.130;2022-08-19T06:44:08;16.80;99.90
49765;DHT22;35657;51.204;-4.130;2022-08-19T06:46:36;16.70;99.90
49765;DHT22;35657;51.204;-4.130;2022-08-19T06:49:02;16.80;99.90
49765;DHT22;35657;51.204;-4.130;2022-08-19T06:51:28;16.90;99.90
49765;DHT22;35657;51.204;-4.130;2022-08-19T06:53:55;16.90;99.90
49765;DHT22;35657;51.204;-4.130;2022-08-19T06:56:26;16.90;99.90
49765;DHT22;35657;51.204;-4.130;2022-08-19T06:59:04;16.90;99.90
49765;DHT22;35657;51.204;-4.130;2022-08-19T07:01:35;17.00;99.90
49765;DHT22;35657;51.204;-4.130;2022-08-19T07:04:03;17.10;99.90
49765;DHT22;35657;51.204;-4.130;2022-08-19T07:06:29;17.10;99.90
49765;DHT22;35657;51.204;-4.130;2022-08-19T07:08:57;17.20;99.90
49765;DHT22;35657;51.204;-4.130;2022-08-19T07:11:23;17.20;99.90
49765;DHT22;35657;51.204;-4.130;2022-08-19T07:13:49;17.30;99.90
49765;DHT22;35657;51.204;-4.130;2022-08-19T07:16:18;17.30;99.90
49765;DHT22;35657;51.204;-4.130;2022-08-19T07:18:49;17.30;99.90
49765;DHT22;35657;51.204;-4.130;2022-08-19T07:21:18;17.40;99.90
49765;DHT22;35657;51.204;-4.130;2022-08-19T07:23:45;17.40;99.90
49765;DHT22;35657;51.204;-4.130;2022-08-19T07:26:14;17.40;99.90
49765;DHT22;35657;51.204;-4.130;2022-08-19T07:28:40;17.50;99.90
49765;DHT22;35657;51.204;-4.130;2022-08-19T07:31:11;17.50;99.90
49765;DHT22;35657;51.204;-4.130;2022-08-19T07:33:37;17.60;99.90
49765;DHT22;35657;51.204;-4.130;2022-08-19T07:36:06;17.60;99.90
49765;DHT22;35657;51.204;-4.130;2022-08-19T07:38:33;17.70;99.90
49765;DHT22;35657;51.204;-4.130;2022-08-19T07:41:00;17.80;99.90
49765;DHT22;35657;51.204;-4.130;2022-08-19T07:43:27;17.80;99.90
49765;DHT22;35657;51.204;-4.130;2022-08-19T07:45:54;17.70;99.90
49765;DHT22;35657;51.204;-4.130;2022-08-19T07:48:27;17.70;99.90
49765;DHT22;35657;51.204;-4.130;2022-08-19T07:50:59;17.80;99.90
49765;DHT22;35657;51.204;-4.130;2022-08-19T07:53:28;17.90;99.90
49765;DHT22;35657;51.204;-4.130;2022-08-19T07:55:54;17.90;99.90
49765;DHT22;35657;51.204;-4.130;2022-08-19T07:58:21;17.90;99.90
49765;DHT22;35657;51.204;-4.130;2022-08-19T08:00:49;17.90;99.90
49765;DHT22;35657;51.204;-4.130;2022-08-19T08:03:19;17.70;99.90
49765;DHT22;35657;51.204;-4.130;2022-08-19T08:05:45;17.60;99.90
49765;DHT22;35657;51.204;-4.130;2022-08-19T08:08:30;17.60;99.90
49765;DHT22;35657;51.204;-4.130;2022-08-19T08:11:19;17.60;99.90
49765;DHT22;35657;51.204;-4.130;2022-08-19T08:13:46;17.60;99.90
49765;DHT22;35657;51.204;-4.130;2022-08-19T08:16:11;17.60;99.90
49765;DHT22;35657;51.204;-4.130;2022-08-19T08:18:37;17.60;99.90
49765;DHT22;35657;51.204;-4.130;2022-08-19T08:21:07;17.70;99.90
49765;DHT22;35657;51.204;-4.130;2022-08-19T08:23:34;17.80;99.90
49765;DHT22;35657;51.204;-4.130;2022-08-19T08:26:00;17.80;99.90
49765;DHT22;35657;51.204;-4.130;2022-08-19T08:28:27;17.90;99.90
49765;DHT22;35657;51.204;-4.130;2022-08-19T08:30:53;17.90;99.90
49765;DHT22;35657;51.204;-4.130;2022-08-19T08:33:22;17.90;99.90
49765;DHT22;35657;51.204;-4.130;2022-08-19T08:35:48;17.90;99.90
49765;DHT22;35657;51.204;-4.130;2022-08-19T08:38:14;17.90;99.90
49765;DHT22;35657;51.204;-4.130;2022-08-19T08:40:47;17.90;99.90
49765;DHT22;35657;51.204;-4.130;2022-08-19T08:43:27;18.10;99.90
49765;DHT22;35657;51.204;-4.130;2022-08-19T08:46:09;18.30;99.90
49765;DHT22;35657;51.204;-4.130;2022-08-19T08:48:57;18.40;99.90
49765;DHT22;35657;51.204;-4.130;2022-08-19T08:51:40;18.50;99.90
49765;DHT22;35657;51.204;-4.130;2022-08-19T08:54:11;18.60;99.90
49765;DHT22;35657;51.204;-4.130;2022-08-19T08:56:41;18.70;99.90
49765;DHT22;35657;51.204;-4.130;2022-08-19T09:01:42;18.90;99.90
49765;DHT22;35657;51.204;-4.130;2022-08-19T09:04:10;18.80;99.90
49765;DHT22;35657;51.204;-4.130;2022-08-19T09:06:55;18.90;99.90
49765;DHT22;35657;51.204;-4.130;2022-08-19T09:09:26;19.00;99.90
49765;DHT22;35657;51.204;-4.130;2022-08-19T09:12:35;19.00;99.90
49765;DHT22;35657;51.204;-4.130;2022-08-19T09:15:07;19.00;99.90
49765;DHT22;35657;51.204;-4.130;2022-08-19T09:17:34;19.00;99.90
49765;DHT22;35657;51.204;-4.130;2022-08-19T09:22:34;19.00;99.90
49765;DHT22;35657;51.204;-4.130;2022-08-19T09:25:01;18.90;99.90
49765;DHT22;35657;51.204;-4.130;2022-08-19T09:27:28;19.30;99.90
49765;DHT22;35657;51.204;-4.130;2022-08-19T09:29:54;19.50;99.90
49765;DHT22;35657;51.204;-4.130;2022-08-19T09:32:21;19.40;99.90
49765;DHT22;35657;51.204;-4.130;2022-08-19T09:34:47;19.60;99.90
49765;DHT22;35657;51.204;-4.130;2022-08-19T09:37:13;19.70;99.90
49765;DHT22;35657;51.204;-4.130;2022-08-19T09:39:39;20.00;99.90
49765;DHT22;35657;51.204;-4.130;2022-08-19T09:42:09;20.30;99.90
49765;DHT22;35657;51.204;-4.130;2022-08-19T09:44:41;20.20;99.90
49765;DHT22;35657;51.204;-4.130;2022-08-19T09:47:08;20.20;99.90
49765;DHT22;35657;51.204;-4.130;2022-08-19T09:49:34;20.50;99.90
49765;DHT22;35657;51.204;-4.130;2022-08-19T09:52:00;21.00;99.90
49765;DHT22;35657;51.204;-4.130;2022-08-19T09:54:27;21.10;99.90
49765;DHT22;35657;51.204;-4.130;2022-08-19T09:56:54;21.30;99.90
49765;DHT22;35657;51.204;-4.130;2022-08-19T09:59:20;21.30;99.90
49765;DHT22;35657;51.204;-4.130;2022-08-19T10:01:46;21.50;99.90
49765;DHT22;35657;51.204;-4.130;2022-08-19T10:04:12;21.10;99.90
49765;DHT22;35657;51.204;-4.130;2022-08-19T10:06:39;21.30;99.90
49765;DHT22;35657;51.204;-4.130;2022-08-19T10:09:07;21.60;99.90
49765;DHT22;35657;51.204;-4.130;2022-08-19T10:11:35;21.20;99.90
49765;DHT22;35657;51.204;-4.130;2022-08-19T10:14:04;21.00;99.90
49765;DHT22;35657;51.204;-4.130;2022-08-19T10:16:35;21.00;99.90
49765;DHT22;35657;51.204;-4.130;2022-08-19T10:19:01;21.30;99.90
49765;DHT22;35657;51.204;-4.130;2022-08-19T10:21:29;21.10;99.90
49765;DHT22;35657;51.204;-4.130;2022-08-19T10:23:58;20.80;99.90
49765;DHT22;35657;51.204;-4.130;2022-08-19T10:26:28;21.30;99.90
49765;DHT22;35657;51.204;-4.130;2022-08-19T10:28:55;21.70;99.90
49765;DHT22;35657;51.204;-4.130;2022-08-19T10:31:27;21.70;99.90
49765;DHT22;35657;51.204;-4.130;2022-08-19T10:33:54;21.40;99.90
49765;DHT22;35657;51.204;-4.130;2022-08-19T10:36:27;21.50;99.90
49765;DHT22;35657;51.204;-4.130;2022-08-19T10:38:55;21.60;99.90
49765;DHT22;35657;51.204;-4.130;2022-08-19T10:41:27;21.80;99.90
49765;DHT22;35657;51.204;-4.130;2022-08-19T10:43:55;21.70;99.90
49765;DHT22;35657;51.204;-4.130;2022-08-19T10:46:24;21.70;99.90
49765;DHT22;35657;51.204;-4.130;2022-08-19T10:48:50;21.40;99.90
49765;DHT22;35657;51.204;-4.130;2022-08-19T10:51:16;21.40;99.90
49765;DHT22;35657;51.204;-4.130;2022-08-19T10:54:01;21.70;99.90
49765;DHT22;35657;51.204;-4.130;2022-08-19T10:56:28;22.20;99.90
49765;DHT22;35657;51.204;-4.130;2022-08-19T10:59:13;22.50;99.90
49765;DHT22;35657;51.204;-4.130;2022-08-19T11:01:41;22.30;99.90
49765;DHT22;35657;51.204;-4.130;2022-08-19T11:04:07;21.80;99.90
49765;DHT22;35657;51.204;-4.130;2022-08-19T11:06:36;22.20;99.90
49765;DHT22;35657;51.204;-4.130;2022-08-19T11:09:04;22.70;99.90
49765;DHT22;35657;51.204;-4.130;2022-08-19T11:11:30;23.10;99.90
49765;DHT22;35657;51.204;-4.130;2022-08-19T11:13:57;22.90;99.90
49765;DHT22;35657;51.204;-4.130;2022-08-19T11:16:25;22.60;99.90
49765;DHT22;35657;51.204;-4.130;2022-08-19T11:18:57;22.40;99.90
49765;DHT22;35657;51.204;-4.130;2022-08-19T11:23:56;22.50;99.90
49765;DHT22;35657;51.204;-4.130;2022-08-19T11:26:23;22.70;99.90
49765;DHT22;35657;51.204;-4.130;2022-08-19T11:28:50;22.60;99.90
49765;DHT22;35657;51.204;-4.130;2022-08-19T11:31:25;22.40;99.90
49765;DHT22;35657;51.204;-4.130;2022-08-19T11:33:51;22.30;99.90
49765;DHT22;35657;51.204;-4.130;2022-08-19T11:36:21;22.00;99.90
49765;DHT22;35657;51.204;-4.130;2022-08-19T11:38:48;22.10;99.90
49765;DHT22;35657;51.204;-4.130;2022-08-19T11:41:16;22.00;99.90
49765;DHT22;35657;51.204;-4.130;2022-08-19T11:43:42;22.20;99.90
49765;DHT22;35657;51.204;-4.130;2022-08-19T11:46:11;22.50;99.90
49765;DHT22;35657;51.204;-4.130;2022-08-19T11:48:37;22.60;99.90
49765;DHT22;35657;51.204;-4.130;2022-08-19T11:51:07;22.80;99.90
49765;DHT22;35657;51.204;-4.130;2022-08-19T11:53:34;22.70;99.90
49765;DHT22;35657;51.204;-4.130;2022-08-19T11:56:00;23.00;99.90
49765;DHT22;35657;51.204;-4.130;2022-08-19T11:58:26;23.10;99.90
49765;DHT22;35657;51.204;-4.130;2022-08-19T12:00:52;23.30;99.90
49765;DHT22;35657;51.204;-4.130;2022-08-19T12:03:18;23.60;99.90
49765;DHT22;35657;51.204;-4.130;2022-08-19T12:05:45;23.70;99.90
49765;DHT22;35657;51.204;-4.130;2022-08-19T12:08:11;23.90;99.90
49765;DHT22;35657;51.204;-4.130;2022-08-19T12:10:39;24.10;99.90
49765;DHT22;35657;51.204;-4.130;2022-08-19T12:13:05;23.10;99.90
49765;DHT22;35657;51.204;-4.130;2022-08-19T12:15:36;22.50;99.90
49765;DHT22;35657;51.204;-4.130;2022-08-19T12:18:03;22.40;99.90
49765;DHT22;35657;51.204;-4.130;2022-08-19T12:20:29;22.30;99.90
49765;DHT22;35657;51.204;-4.130;2022-08-19T12:22:54;22.10;99.90
49765;DHT22;35657;51.204;-4.130;2022-08-19T12:25:20;21.90;99.90
49765;DHT22;35657;51.204;-4.130;2022-08-19T12:27:46;22.00;99.90
49765;DHT22;35657;51.204;-4.130;2022-08-19T12:30:13;21.60;99.90
49765;DHT22;35657;51.204;-4.130;2022-08-19T12:32:39;21.90;99.90
49765;DHT22;35657;51.204;-4.130;2022-08-19T12:35:06;22.30;99.90
49765;DHT22;35657;51.204;-4.130;2022-08-19T12:37:33;21.90;99.90
49765;DHT22;35657;51.204;-4.130;2022-08-19T12:39:59;21.20;99.90
49765;DHT22;35657;51.204;-4.130;2022-08-19T12:42:25;21.00;99.90
49765;DHT22;35657;51.204;-4.130;2022-08-19T12:44:51;20.70;99.90
49765;DHT22;35657;51.204;-4.130;2022-08-19T12:47:17;21.30;99.90
49765;DHT22;35657;51.204;-4.130;2022-08-19T12:49:43;21.40;99.90
49765;DHT22;35657;51.204;-4.130;2022-08-19T12:52:09;21.50;99.90
49765;DHT22;35657;51.204;-4.130;2022-08-19T12:54:37;21.20;99.90
49765;DHT22;35657;51.204;-4.130;2022-08-19T12:57:07;21.10;99.90
49765;DHT22;35657;51.204;-4.130;2022-08-19T12:59:37;21.20;99.90
49765;DHT22;35657;51.204;-4.130;2022-08-19T13:02:04;21.70;99.90
49765;DHT22;35657;51.204;-4.130;2022-08-19T13:04:32;20.90;99.90
49765;DHT22;35657;51.204;-4.130;2022-08-19T13:07:00;21.10;99.90
49765;DHT22;35657;51.204;-4.130;2022-08-19T13:09:26;21.30;99.90
49765;DHT22;35657;51.204;-4.130;2022-08-19T13:11:51;21.80;99.90
49765;DHT22;35657;51.204;-4.130;2022-08-19T13:14:17;21.90;99.90
49765;DHT22;35657;51.204;-4.130;2022-08-19T13:16:44;21.80;99.90
49765;DHT22;35657;51.204;-4.130;2022-08-19T13:19:09;22.00;99.90
49765;DHT22;35657;51.204;-4.130;2022-08-19T13:21:37;22.00;99.90
49765;DHT22;35657;51.204;-4.130;2022-08-19T13:24:03;22.00;99.90
49765;DHT22;35657;51.204;-4.130;2022-08-19T13:26:29;21.80;99.90
49765;DHT22;35657;51.204;-4.130;2022-08-19T13:28:54;21.40;99.90
49765;DHT22;35657;51.204;-4.130;2022-08-19T13:31:55;21.60;99.90
49765;DHT22;35657;51.204;-4.130;2022-08-19T13:34:39;20.90;99.90
49765;DHT22;35657;51.204;-4.130;2022-08-19T13:37:05;21.20;99.90
49765;DHT22;35657;51.204;-4.130;2022-08-19T13:39:32;20.90;99.90
49765;DHT22;35657;51.204;-4.130;2022-08-19T13:41:58;21.30;99.90
49765;DHT22;35657;51.204;-4.130;2022-08-19T13:44:26;21.60;99.90
49765;DHT22;35657;51.204;-4.130;2022-08-19T13:46:59;21.60;99.90
49765;DHT22;35657;51.204;-4.130;2022-08-19T13:49:28;21.60;99.90
49765;DHT22;35657;51.204;-4.130;2022-08-19T13:51:56;21.20;99.90
49765;DHT22;35657;51.204;-4.130;2022-08-19T13:54:22;21.10;99.90
49765;DHT22;35657;51.204;-4.130;2022-08-19T13:56:48;21.20;99.90
49765;DHT22;35657;51.204;-4.130;2022-08-19T13:59:13;21.30;99.90
49765;DHT22;35657;51.204;-4.130;2022-08-19T14:01:39;21.70;99.90
49765;DHT22;35657;51.204;-4.130;2022-08-19T14:04:05;21.60;99.90
49765;DHT22;35657;51.204;-4.130;2022-08-19T14:06:32;21.80;99.90
49765;DHT22;35657;51.204;-4.130;2022-08-19T14:08:58;21.50;99.90
49765;DHT22;35657;51.204;-4.130;2022-08-19T14:11:24;21.80;99.90
49765;DHT22;35657;51.204;-4.130;2022-08-19T14:13:50;21.50;99.90
49765;DHT22;35657;51.204;-4.130;2022-08-19T14:16:15;21.40;99.90
49765;DHT22;35657;51.204;-4.130;2022-08-19T14:18:42;21.20;99.90
49765;DHT22;35657;51.204;-4.130;2022-08-19T14:21:15;21.20;99.90
49765;DHT22;35657;51.204;-4.130;2022-08-19T14:23:41;21.00;99.90
49765;DHT22;35657;51.204;-4.130;2022-08-19T14:26:09;20.90;99.90
49765;DHT22;35657;51.204;-4.130;2022-08-19T14:28:37;20.80;99.90
49765;DHT22;35657;51.204;-4.130;2022-08-19T14:31:04;20.70;99.90
49765;DHT22;35657;51.204;-4.130;2022-08-19T14:33:30;20.60;99.90
49765;DHT22;35657;51.204;-4.130;2022-08-19T14:35:57;20.60;99.90
49765;DHT22;35657;51.204;-4.130;2022-08-19T14:38:23;20.70;99.90
49765;DHT22;35657;51.204;-4.130;2022-08-19T14:40:49;20.50;99.90
49765;DHT22;35657;51.204;-4.130;2022-08-19T14:43:14;20.70;99.90
49765;DHT22;35657;51.204;-4.130;2022-08-19T14:45:40;20.30;99.90
49765;DHT22;35657;51.204;-4.130;2022-08-19T14:48:07;20.10;99.90
49765;DHT22;35657;51.204;-4.130;2022-08-19T14:50:34;20.40;99.90
49765;DHT22;35657;51.204;-4.130;2022-08-19T14:53:05;20.30;99.90
49765;DHT22;35657;51.204;-4.130;2022-08-19T14:55:31;20.30;99.90
49765;DHT22;35657;51.204;-4.130;2022-08-19T14:57:58;20.50;99.90
49765;DHT22;35657;51.204;-4.130;2022-08-19T15:00:24;20.40;99.90
49765;DHT22;35657;51.204;-4.130;2022-08-19T15:02:51;20.20;99.90
49765;DHT22;35657;51.204;-4.130;2022-08-19T15:05:17;20.60;99.90
49765;DHT22;35657;51.204;-4.130;2022-08-19T15:07:43;20.90;99.90
49765;DHT22;35657;51.204;-4.130;2022-08-19T15:10:11;20.70;99.90
49765;DHT22;35657;51.204;-4.130;2022-08-19T15:12:38;20.60;99.90
49765;DHT22;35657;51.204;-4.130;2022-08-19T15:15:13;20.40;99.90
49765;DHT22;35657;51.204;-4.130;2022-08-19T15:17:40;20.80;99.90
49765;DHT22;35657;51.204;-4.130;2022-08-19T15:20:07;21.00;99.90
49765;DHT22;35657;51.204;-4.130;2022-08-19T15:22:33;20.90;99.90
49765;DHT22;35657;51.204;-4.130;2022-08-19T15:24:59;21.00;99.90
49765;DHT22;35657;51.204;-4.130;2022-08-19T15:27:26;21.00;99.90
49765;DHT22;35657;51.204;-4.130;2022-08-19T15:29:52;20.70;99.90
49765;DHT22;35657;51.204;-4.130;2022-08-19T15:32:18;20.80;99.90